Terminal Aerodrome Forecast
Issued by NWS Paducah, KY

Home | Current Version | Previous Version | Text Only | Print | Product List | Glossary On
Versions: 1 2 3 4 5 6 7 8 9 10 11 12 13 14 15 16 17 18 19 20 21 22 23 24 25
000
FTUS43 KPAH 070921 AAC
TAFPAH
TAF AMD
KPAH 070921Z 0709/0806 19005KT 5SM SHRA BR BKN013
      TEMPO 0709/0711 2SM +TSRA BR SCT007CB OVC012
     FM071400 21010KT P6SM SCT030 BKN050
     FM072100 22012KT P6SM VCTS SCT020CB BKN040
      TEMPO 0723/0803 3SM TSRA OVC020CB
     FM080400 24010KT P6SM BKN030=

USA.gov is the U.S. government's official web portal to all federal, state and local government web resources and services.